sensor_id;sensor_type;location;lat;lon;timestamp;P1;durP1;ratioP1;P2;durP2;ratioP2
17091;SDS011;8661;45.700;4.880;2022-12-18T00:02:18;41.20;;;21.10;;
17091;SDS011;8661;45.700;4.880;2022-12-18T00:04:47;36.73;;;18.57;;
17091;SDS011;8661;45.700;4.880;2022-12-18T00:07:13;40.10;;;21.17;;
17091;SDS011;8661;45.700;4.880;2022-12-18T00:09:40;39.17;;;19.53;;
17091;SDS011;8661;45.700;4.880;2022-12-18T00:12:07;39.33;;;20.20;;
17091;SDS011;8661;45.700;4.880;2022-12-18T00:14:34;41.77;;;20.80;;
17091;SDS011;8661;45.700;4.880;2022-12-18T00:17:03;43.20;;;21.27;;
17091;SDS011;8661;45.700;4.880;2022-12-18T00:19:30;41.63;;;20.67;;
17091;SDS011;8661;45.700;4.880;2022-12-18T00:21:56;38.03;;;21.07;;
17091;SDS011;8661;45.700;4.880;2022-12-18T00:24:24;40.00;;;20.60;;
17091;SDS011;8661;45.700;4.880;2022-12-18T00:26:51;45.00;;;21.30;;
17091;SDS011;8661;45.700;4.880;2022-12-18T00:29:18;38.43;;;19.33;;
17091;SDS011;8661;45.700;4.880;2022-12-18T00:31:45;39.47;;;20.87;;
17091;SDS011;8661;45.700;4.880;2022-12-18T00:34:13;40.73;;;20.97;;
17091;SDS011;8661;45.700;4.880;2022-12-18T00:36:40;44.67;;;22.03;;
17091;SDS011;8661;45.700;4.880;2022-12-18T00:39:08;39.13;;;20.47;;
17091;SDS011;8661;45.700;4.880;2022-12-18T00:41:36;42.10;;;20.53;;
17091;SDS011;8661;45.700;4.880;2022-12-18T00:44:21;37.10;;;20.43;;
17091;SDS011;8661;45.700;4.880;2022-12-18T00:46:48;43.47;;;21.30;;
17091;SDS011;8661;45.700;4.880;2022-12-18T00:49:17;42.87;;;20.87;;
17091;SDS011;8661;45.700;4.880;2022-12-18T00:51:45;42.90;;;21.33;;
17091;SDS011;8661;45.700;4.880;2022-12-18T00:54:12;43.00;;;21.63;;
17091;SDS011;8661;45.700;4.880;2022-12-18T00:56:39;44.60;;;22.27;;
17091;SDS011;8661;45.700;4.880;2022-12-18T00:59:06;44.00;;;21.90;;
17091;SDS011;8661;45.700;4.880;2022-12-18T01:01:33;44.97;;;21.83;;
17091;SDS011;8661;45.700;4.880;2022-12-18T01:04:01;45.93;;;22.47;;
17091;SDS011;8661;45.700;4.880;2022-12-18T01:06:30;45.60;;;22.27;;
17091;SDS011;8661;45.700;4.880;2022-12-18T01:08:57;46.73;;;23.07;;
17091;SDS011;8661;45.700;4.880;2022-12-18T01:11:23;44.50;;;22.27;;
17091;SDS011;8661;45.700;4.880;2022-12-18T01:13:51;47.20;;;22.80;;
17091;SDS011;8661;45.700;4.880;2022-12-18T01:16:18;43.57;;;23.00;;
17091;SDS011;8661;45.700;4.880;2022-12-18T01:18:45;46.57;;;23.17;;
17091;SDS011;8661;45.700;4.880;2022-12-18T01:21:13;44.07;;;22.30;;
17091;SDS011;8661;45.700;4.880;2022-12-18T01:23:42;54.27;;;24.63;;
17091;SDS011;8661;45.700;4.880;2022-12-18T01:26:10;45.37;;;22.00;;
17091;SDS011;8661;45.700;4.880;2022-12-18T01:28:38;47.07;;;22.77;;
17091;SDS011;8661;45.700;4.880;2022-12-18T01:31:09;43.50;;;22.80;;
17091;SDS011;8661;45.700;4.880;2022-12-18T01:33:40;50.07;;;23.97;;
17091;SDS011;8661;45.700;4.880;2022-12-18T01:36:07;40.50;;;21.83;;
17091;SDS011;8661;45.700;4.880;2022-12-18T01:38:35;45.53;;;22.53;;
17091;SDS011;8661;45.700;4.880;2022-12-18T01:41:03;48.67;;;24.17;;
17091;SDS011;8661;45.700;4.880;2022-12-18T01:43:42;44.17;;;23.93;;
17091;SDS011;8661;45.700;4.880;2022-12-18T01:46:11;45.83;;;23.03;;
17091;SDS011;8661;45.700;4.880;2022-12-18T01:48:38;46.57;;;23.70;;
17091;SDS011;8661;45.700;4.880;2022-12-18T01:51:07;42.90;;;22.90;;
17091;SDS011;8661;45.700;4.880;2022-12-18T01:53:36;45.87;;;24.33;;
17091;SDS011;8661;45.700;4.880;2022-12-18T01:56:06;46.60;;;23.77;;
17091;SDS011;8661;45.700;4.880;2022-12-18T01:58:35;41.40;;;23.43;;
17091;SDS011;8661;45.700;4.880;2022-12-18T02:01:07;44.47;;;23.63;;
17091;SDS011;8661;45.700;4.880;2022-12-18T02:03:35;48.93;;;23.43;;
17091;SDS011;8661;45.700;4.880;2022-12-18T02:06:05;46.50;;;23.67;;
17091;SDS011;8661;45.700;4.880;2022-12-18T02:08:37;45.30;;;22.03;;
17091;SDS011;8661;45.700;4.880;2022-12-18T02:11:12;41.37;;;21.33;;
17091;SDS011;8661;45.700;4.880;2022-12-18T02:13:46;42.57;;;20.57;;
17091;SDS011;8661;45.700;4.880;2022-12-18T02:16:21;42.10;;;22.77;;
17091;SDS011;8661;45.700;4.880;2022-12-18T02:18:52;39.37;;;21.27;;
17091;SDS011;8661;45.700;4.880;2022-12-18T02:21:25;45.63;;;23.40;;
17091;SDS011;8661;45.700;4.880;2022-12-18T02:24:07;42.93;;;21.13;;
17091;SDS011;8661;45.700;4.880;2022-12-18T02:26:49;41.10;;;20.27;;
17091;SDS011;8661;45.700;4.880;2022-12-18T02:29:20;37.03;;;20.20;;
17091;SDS011;8661;45.700;4.880;2022-12-18T02:31:53;41.30;;;20.23;;
17091;SDS011;8661;45.700;4.880;2022-12-18T02:34:23;40.57;;;20.67;;
17091;SDS011;8661;45.700;4.880;2022-12-18T02:36:54;37.90;;;20.63;;
17091;SDS011;8661;45.700;4.880;2022-12-18T02:39:23;39.83;;;20.97;;
17091;SDS011;8661;45.700;4.880;2022-12-18T02:41:54;40.87;;;20.90;;
17091;SDS011;8661;45.700;4.880;2022-12-18T02:44:21;34.60;;;18.00;;
17091;SDS011;8661;45.700;4.880;2022-12-18T02:46:49;39.20;;;19.90;;
17091;SDS011;8661;45.700;4.880;2022-12-18T02:49:22;38.30;;;19.07;;
17091;SDS011;8661;45.700;4.880;2022-12-18T02:51:55;32.90;;;18.37;;
17091;SDS011;8661;45.700;4.880;2022-12-18T02:54:38;36.30;;;19.50;;
17091;SDS011;8661;45.700;4.880;2022-12-18T02:57:19;39.60;;;19.37;;
17091;SDS011;8661;45.700;4.880;2022-12-18T02:59:57;39.70;;;20.13;;
17091;SDS011;8661;45.700;4.880;2022-12-18T03:02:29;36.40;;;19.23;;
17091;SDS011;8661;45.700;4.880;2022-12-18T03:05:04;38.67;;;19.13;;
17091;SDS011;8661;45.700;4.880;2022-12-18T03:07:37;39.30;;;20.37;;
17091;SDS011;8661;45.700;4.880;2022-12-18T03:10:09;38.93;;;20.37;;
17091;SDS011;8661;45.700;4.880;2022-12-18T03:12:42;38.37;;;19.83;;
17091;SDS011;8661;45.700;4.880;2022-12-18T03:15:14;36.37;;;19.03;;
17091;SDS011;8661;45.700;4.880;2022-12-18T03:17:46;38.87;;;19.60;;
17091;SDS011;8661;45.700;4.880;2022-12-18T03:20:17;38.80;;;20.23;;
17091;SDS011;8661;45.700;4.880;2022-12-18T03:22:50;40.67;;;20.50;;
17091;SDS011;8661;45.700;4.880;2022-12-18T03:25:19;40.73;;;19.77;;
17091;SDS011;8661;45.700;4.880;2022-12-18T03:27:49;38.83;;;19.40;;
17091;SDS011;8661;45.700;4.880;2022-12-18T03:30:21;39.30;;;19.87;;
17091;SDS011;8661;45.700;4.880;2022-12-18T03:32:48;37.30;;;18.90;;
17091;SDS011;8661;45.700;4.880;2022-12-18T03:35:21;35.40;;;19.37;;
17091;SDS011;8661;45.700;4.880;2022-12-18T03:37:50;36.80;;;18.63;;
17091;SDS011;8661;45.700;4.880;2022-12-18T03:40:17;34.10;;;18.83;;
17091;SDS011;8661;45.700;4.880;2022-12-18T03:42:46;34.20;;;18.23;;
17091;SDS011;8661;45.700;4.880;2022-12-18T03:45:19;36.73;;;17.80;;
17091;SDS011;8661;45.700;4.880;2022-12-18T03:47:55;37.33;;;18.63;;
17091;SDS011;8661;45.700;4.880;2022-12-18T03:50:27;34.73;;;17.47;;
17091;SDS011;8661;45.700;4.880;2022-12-18T03:53:03;36.47;;;18.13;;
17091;SDS011;8661;45.700;4.880;2022-12-18T03:55:38;34.90;;;18.03;;
17091;SDS011;8661;45.700;4.880;2022-12-18T03:58:07;34.07;;;17.87;;
17091;SDS011;8661;45.700;4.880;2022-12-18T04:00:37;35.70;;;18.40;;
17091;SDS011;8661;45.700;4.880;2022-12-18T04:03:05;33.97;;;17.80;;
17091;SDS011;8661;45.700;4.880;2022-12-18T04:05:34;35.47;;;17.80;;
17091;SDS011;8661;45.700;4.880;2022-12-18T04:08:03;34.53;;;19.30;;
17091;SDS011;8661;45.700;4.880;2022-12-18T04:10:30;36.80;;;18.47;;
17091;SDS011;8661;45.700;4.880;2022-12-18T04:12:57;38.90;;;18.73;;
17091;SDS011;8661;45.700;4.880;2022-12-18T04:15:26;33.30;;;18.13;;
17091;SDS011;8661;45.700;4.880;2022-12-18T04:17:53;35.33;;;18.73;;
17091;SDS011;8661;45.700;4.880;2022-12-18T04:20:20;35.70;;;17.50;;
17091;SDS011;8661;45.700;4.880;2022-12-18T04:22:47;34.83;;;18.07;;
17091;SDS011;8661;45.700;4.880;2022-12-18T04:25:14;37.87;;;18.90;;
17091;SDS011;8661;45.700;4.880;2022-12-18T04:27:41;33.93;;;16.57;;
17091;SDS011;8661;45.700;4.880;2022-12-18T04:30:08;35.00;;;18.17;;
17091;SDS011;8661;45.700;4.880;2022-12-18T04:32:37;31.77;;;17.73;;
17091;SDS011;8661;45.700;4.880;2022-12-18T04:35:04;34.17;;;16.93;;
17091;SDS011;8661;45.700;4.880;2022-12-18T04:37:35;32.57;;;17.67;;
17091;SDS011;8661;45.700;4.880;2022-12-18T04:40:02;36.00;;;18.73;;
17091;SDS011;8661;45.700;4.880;2022-12-18T04:42:29;35.53;;;16.87;;
17091;SDS011;8661;45.700;4.880;2022-12-18T04:44:56;32.93;;;18.20;;
17091;SDS011;8661;45.700;4.880;2022-12-18T04:47:23;35.57;;;17.63;;
17091;SDS011;8661;45.700;4.880;2022-12-18T04:49:51;34.13;;;16.83;;
17091;SDS011;8661;45.700;4.880;2022-12-18T04:52:18;31.90;;;17.47;;
17091;SDS011;8661;45.700;4.880;2022-12-18T04:54:45;35.53;;;18.40;;
17091;SDS011;8661;45.700;4.880;2022-12-18T04:57:12;34.13;;;18.53;;
17091;SDS011;8661;45.700;4.880;2022-12-18T04:59:38;37.40;;;18.37;;
17091;SDS011;8661;45.700;4.880;2022-12-18T05:02:05;36.63;;;19.40;;
17091;SDS011;8661;45.700;4.880;2022-12-18T05:04:32;39.43;;;18.33;;
17091;SDS011;8661;45.700;4.880;2022-12-18T05:07:00;40.53;;;18.70;;
17091;SDS011;8661;45.700;4.880;2022-12-18T05:09:27;35.07;;;19.53;;
17091;SDS011;8661;45.700;4.880;2022-12-18T05:11:54;32.33;;;18.23;;
17091;SDS011;8661;45.700;4.880;2022-12-18T05:14:21;42.20;;;19.23;;
17091;SDS011;8661;45.700;4.880;2022-12-18T05:16:48;36.83;;;19.73;;
17091;SDS011;8661;45.700;4.880;2022-12-18T05:19:15;38.27;;;19.30;;
17091;SDS011;8661;45.700;4.880;2022-12-18T05:21:42;36.93;;;20.47;;
17091;SDS011;8661;45.700;4.880;2022-12-18T05:24:10;35.20;;;18.83;;
17091;SDS011;8661;45.700;4.880;2022-12-18T05:26:37;37.80;;;19.80;;
17091;SDS011;8661;45.700;4.880;2022-12-18T05:29:04;37.23;;;19.80;;
17091;SDS011;8661;45.700;4.880;2022-12-18T05:31:30;34.20;;;17.73;;
17091;SDS011;8661;45.700;4.880;2022-12-18T05:33:57;37.60;;;19.00;;
17091;SDS011;8661;45.700;4.880;2022-12-18T05:36:24;33.87;;;19.00;;
17091;SDS011;8661;45.700;4.880;2022-12-18T05:38:51;36.20;;;20.17;;
17091;SDS011;8661;45.700;4.880;2022-12-18T05:41:19;37.57;;;20.33;;
17091;SDS011;8661;45.700;4.880;2022-12-18T05:43:46;36.33;;;18.87;;
17091;SDS011;8661;45.700;4.880;2022-12-18T05:46:14;36.73;;;19.27;;
17091;SDS011;8661;45.700;4.880;2022-12-18T05:48:42;35.13;;;18.20;;
17091;SDS011;8661;45.700;4.880;2022-12-18T05:51:11;33.17;;;18.40;;
17091;SDS011;8661;45.700;4.880;2022-12-18T05:53:40;35.40;;;19.40;;
17091;SDS011;8661;45.700;4.880;2022-12-18T05:56:08;40.63;;;21.13;;
17091;SDS011;8661;45.700;4.880;2022-12-18T05:58:38;37.70;;;20.77;;
17091;SDS011;8661;45.700;4.880;2022-12-18T06:01:06;39.17;;;20.23;;
17091;SDS011;8661;45.700;4.880;2022-12-18T06:03:34;39.33;;;21.37;;
17091;SDS011;8661;45.700;4.880;2022-12-18T06:06:01;39.43;;;19.77;;
17091;SDS011;8661;45.700;4.880;2022-12-18T06:08:28;38.47;;;20.00;;
17091;SDS011;8661;45.700;4.880;2022-12-18T06:10:55;41.17;;;20.87;;
17091;SDS011;8661;45.700;4.880;2022-12-18T06:13:22;40.43;;;20.77;;
17091;SDS011;8661;45.700;4.880;2022-12-18T06:15:50;38.93;;;20.47;;
17091;SDS011;8661;45.700;4.880;2022-12-18T06:18:17;40.87;;;19.77;;
17091;SDS011;8661;45.700;4.880;2022-12-18T06:20:44;41.07;;;20.73;;
17091;SDS011;8661;45.700;4.880;2022-12-18T06:23:11;40.27;;;21.70;;
17091;SDS011;8661;45.700;4.880;2022-12-18T06:25:38;33.63;;;19.17;;
17091;SDS011;8661;45.700;4.880;2022-12-18T06:28:05;39.03;;;19.93;;
17091;SDS011;8661;45.700;4.880;2022-12-18T06:30:32;37.33;;;20.27;;
17091;SDS011;8661;45.700;4.880;2022-12-18T06:33:00;38.20;;;19.80;;
17091;SDS011;8661;45.700;4.880;2022-12-18T06:35:27;42.30;;;21.10;;
17091;SDS011;8661;45.700;4.880;2022-12-18T06:37:54;42.73;;;20.60;;
17091;SDS011;8661;45.700;4.880;2022-12-18T06:40:21;40.43;;;21.00;;
17091;SDS011;8661;45.700;4.880;2022-12-18T06:42:47;40.13;;;21.00;;
17091;SDS011;8661;45.700;4.880;2022-12-18T06:45:14;38.57;;;20.10;;
17091;SDS011;8661;45.700;4.880;2022-12-18T06:47:41;38.37;;;20.43;;
17091;SDS011;8661;45.700;4.880;2022-12-18T06:50:10;38.17;;;20.77;;
17091;SDS011;8661;45.700;4.880;2022-12-18T06:52:37;40.23;;;20.97;;
17091;SDS011;8661;45.700;4.880;2022-12-18T06:55:05;40.23;;;20.80;;
17091;SDS011;8661;45.700;4.880;2022-12-18T06:57:33;41.03;;;20.47;;
17091;SDS011;8661;45.700;4.880;2022-12-18T06:59:59;41.23;;;21.30;;
17091;SDS011;8661;45.700;4.880;2022-12-18T07:02:27;45.13;;;22.57;;
17091;SDS011;8661;45.700;4.880;2022-12-18T07:04:54;41.87;;;22.00;;
17091;SDS011;8661;45.700;4.880;2022-12-18T07:07:23;45.07;;;21.97;;
17091;SDS011;8661;45.700;4.880;2022-12-18T07:09:50;41.80;;;21.00;;
17091;SDS011;8661;45.700;4.880;2022-12-18T07:12:17;43.60;;;20.13;;
17091;SDS011;8661;45.700;4.880;2022-12-18T07:14:44;41.53;;;22.17;;
17091;SDS011;8661;45.700;4.880;2022-12-18T07:17:11;44.70;;;21.33;;
17091;SDS011;8661;45.700;4.880;2022-12-18T07:19:38;41.70;;;21.43;;
17091;SDS011;8661;45.700;4.880;2022-12-18T07:22:04;39.77;;;20.57;;
17091;SDS011;8661;45.700;4.880;2022-12-18T07:24:33;38.40;;;20.93;;
17091;SDS011;8661;45.700;4.880;2022-12-18T07:27:00;41.77;;;21.03;;
17091;SDS011;8661;45.700;4.880;2022-12-18T07:29:27;45.07;;;21.43;;
17091;SDS011;8661;45.700;4.880;2022-12-18T07:31:56;41.57;;;21.13;;
17091;SDS011;8661;45.700;4.880;2022-12-18T07:34:23;44.47;;;21.50;;
17091;SDS011;8661;45.700;4.880;2022-12-18T07:36:50;38.73;;;20.13;;
17091;SDS011;8661;45.700;4.880;2022-12-18T07:39:17;43.50;;;21.67;;
17091;SDS011;8661;45.700;4.880;2022-12-18T07:41:45;40.40;;;20.33;;
17091;SDS011;8661;45.700;4.880;2022-12-18T07:44:32;40.93;;;20.37;;
17091;SDS011;8661;45.700;4.880;2022-12-18T07:46:59;41.10;;;20.57;;
17091;SDS011;8661;45.700;4.880;2022-12-18T07:49:26;44.40;;;21.20;;
17091;SDS011;8661;45.700;4.880;2022-12-18T07:51:54;44.27;;;21.00;;
17091;SDS011;8661;45.700;4.880;2022-12-18T07:54:21;41.00;;;20.80;;
17091;SDS011;8661;45.700;4.880;2022-12-18T07:56:50;41.80;;;20.37;;
17091;SDS011;8661;45.700;4.880;2022-12-18T07:59:17;46.63;;;21.67;;
17091;SDS011;8661;45.700;4.880;2022-12-18T08:01:44;46.53;;;21.47;;
17091;SDS011;8661;45.700;4.880;2022-12-18T08:04:11;45.50;;;20.93;;
17091;SDS011;8661;45.700;4.880;2022-12-18T08:06:38;42.80;;;21.33;;
17091;SDS011;8661;45.700;4.880;2022-12-18T08:09:05;44.40;;;21.57;;
17091;SDS011;8661;45.700;4.880;2022-12-18T08:11:33;43.13;;;20.57;;
17091;SDS011;8661;45.700;4.880;2022-12-18T08:14:01;44.30;;;20.83;;
17091;SDS011;8661;45.700;4.880;2022-12-18T08:16:28;45.17;;;22.03;;
17091;SDS011;8661;45.700;4.880;2022-12-18T08:18:55;42.33;;;20.57;;
17091;SDS011;8661;45.700;4.880;2022-12-18T08:21:23;43.60;;;21.40;;
17091;SDS011;8661;45.700;4.880;2022-12-18T08:23:52;44.87;;;21.10;;
17091;SDS011;8661;45.700;4.880;2022-12-18T08:26:20;41.43;;;20.60;;
17091;SDS011;8661;45.700;4.880;2022-12-18T08:28:49;42.77;;;20.93;;
17091;SDS011;8661;45.700;4.880;2022-12-18T08:31:18;43.90;;;21.00;;
17091;SDS011;8661;45.700;4.880;2022-12-18T08:33:47;47.23;;;22.60;;
17091;SDS011;8661;45.700;4.880;2022-12-18T08:36:15;41.77;;;21.27;;
17091;SDS011;8661;45.700;4.880;2022-12-18T08:38:42;42.30;;;21.30;;
17091;SDS011;8661;45.700;4.880;2022-12-18T08:41:10;43.60;;;20.70;;
17091;SDS011;8661;45.700;4.880;2022-12-18T08:43:39;40.27;;;20.20;;
17091;SDS011;8661;45.700;4.880;2022-12-18T08:46:25;41.83;;;21.37;;
17091;SDS011;8661;45.700;4.880;2022-12-18T08:48:54;40.53;;;19.83;;
17091;SDS011;8661;45.700;4.880;2022-12-18T08:51:21;43.13;;;22.10;;
17091;SDS011;8661;45.700;4.880;2022-12-18T08:53:48;44.03;;;21.03;;
17091;SDS011;8661;45.700;4.880;2022-12-18T08:56:15;37.77;;;19.77;;
17091;SDS011;8661;45.700;4.880;2022-12-18T08:58:42;38.50;;;19.73;;
17091;SDS011;8661;45.700;4.880;2022-12-18T09:01:09;37.93;;;20.73;;
17091;SDS011;8661;45.700;4.880;2022-12-18T09:03:39;37.67;;;19.70;;
17091;SDS011;8661;45.700;4.880;2022-12-18T09:06:06;39.60;;;20.17;;
17091;SDS011;8661;45.700;4.880;2022-12-18T09:08:33;37.80;;;19.50;;
17091;SDS011;8661;45.700;4.880;2022-12-18T09:11:01;40.97;;;20.00;;
17091;SDS011;8661;45.700;4.880;2022-12-18T09:13:28;42.70;;;20.50;;
17091;SDS011;8661;45.700;4.880;2022-12-18T09:15:55;40.83;;;20.77;;
17091;SDS011;8661;45.700;4.880;2022-12-18T09:18:23;43.13;;;20.90;;
17091;SDS011;8661;45.700;4.880;2022-12-18T09:20:51;42.17;;;20.60;;
17091;SDS011;8661;45.700;4.880;2022-12-18T09:23:18;43.90;;;22.17;;
17091;SDS011;8661;45.700;4.880;2022-12-18T09:25:46;34.63;;;18.83;;
17091;SDS011;8661;45.700;4.880;2022-12-18T09:28:15;36.50;;;19.43;;
17091;SDS011;8661;45.700;4.880;2022-12-18T09:30:44;40.97;;;21.03;;
17091;SDS011;8661;45.700;4.880;2022-12-18T09:33:12;38.40;;;20.43;;
17091;SDS011;8661;45.700;4.880;2022-12-18T09:35:40;37.60;;;20.40;;
17091;SDS011;8661;45.700;4.880;2022-12-18T09:38:12;34.77;;;19.03;;
17091;SDS011;8661;45.700;4.880;2022-12-18T09:40:41;36.97;;;19.30;;
17091;SDS011;8661;45.700;4.880;2022-12-18T09:43:12;37.33;;;18.77;;
17091;SDS011;8661;45.700;4.880;2022-12-18T09:45:43;35.60;;;19.43;;
17091;SDS011;8661;45.700;4.880;2022-12-18T09:48:15;38.73;;;19.30;;
17091;SDS011;8661;45.700;4.880;2022-12-18T09:50:47;35.53;;;19.93;;
17091;SDS011;8661;45.700;4.880;2022-12-18T09:53:19;38.90;;;19.87;;
17091;SDS011;8661;45.700;4.880;2022-12-18T09:55:49;37.10;;;18.73;;
17091;SDS011;8661;45.700;4.880;2022-12-18T09:58:20;40.13;;;19.73;;
17091;SDS011;8661;45.700;4.880;2022-12-18T10:00:53;37.10;;;20.17;;
17091;SDS011;8661;45.700;4.880;2022-12-18T10:03:20;36.67;;;19.83;;
17091;SDS011;8661;45.700;4.880;2022-12-18T10:05:50;35.83;;;18.83;;
17091;SDS011;8661;45.700;4.880;2022-12-18T10:08:28;36.60;;;19.43;;
17091;SDS011;8661;45.700;4.880;2022-12-18T10:11:10;36.50;;;19.20;;
17091;SDS011;8661;45.700;4.880;2022-12-18T10:13:48;35.30;;;18.57;;
17091;SDS011;8661;45.700;4.880;2022-12-18T10:16:22;34.23;;;18.83;;
17091;SDS011;8661;45.700;4.880;2022-12-18T10:18:59;40.83;;;20.27;;
17091;SDS011;8661;45.700;4.880;2022-12-18T10:21:38;33.73;;;18.57;;
17091;SDS011;8661;45.700;4.880;2022-12-18T10:24:13;35.70;;;19.03;;
17091;SDS011;8661;45.700;4.880;2022-12-18T10:26:45;33.60;;;18.87;;
17091;SDS011;8661;45.700;4.880;2022-12-18T10:29:14;33.33;;;18.80;;
17091;SDS011;8661;45.700;4.880;2022-12-18T10:31:42;32.87;;;18.27;;
17091;SDS011;8661;45.700;4.880;2022-12-18T10:34:09;31.93;;;17.77;;
17091;SDS011;8661;45.700;4.880;2022-12-18T10:36:39;30.07;;;17.63;;
17091;SDS011;8661;45.700;4.880;2022-12-18T10:41:56;32.27;;;19.17;;
17091;SDS011;8661;45.700;4.880;2022-12-18T10:44:36;32.30;;;18.87;;
17091;SDS011;8661;45.700;4.880;2022-12-18T10:47:03;32.83;;;19.40;;
17091;SDS011;8661;45.700;4.880;2022-12-18T10:49:33;33.93;;;19.90;;
17091;SDS011;8661;45.700;4.880;2022-12-18T10:52:05;35.77;;;20.50;;
17091;SDS011;8661;45.700;4.880;2022-12-18T10:54:45;35.03;;;20.47;;
17091;SDS011;8661;45.700;4.880;2022-12-18T10:57:14;34.17;;;20.67;;
17091;SDS011;8661;45.700;4.880;2022-12-18T10:59:49;32.47;;;20.47;;
17091;SDS011;8661;45.700;4.880;2022-12-18T11:02:25;33.50;;;20.17;;
17091;SDS011;8661;45.700;4.880;2022-12-18T11:04:54;29.67;;;18.90;;
17091;SDS011;8661;45.700;4.880;2022-12-18T11:07:20;31.57;;;20.00;;
17091;SDS011;8661;45.700;4.880;2022-12-18T11:09:59;35.53;;;21.73;;
17091;SDS011;8661;45.700;4.880;2022-12-18T11:12:28;32.80;;;20.23;;
17091;SDS011;8661;45.700;4.880;2022-12-18T11:14:55;32.87;;;20.10;;
17091;SDS011;8661;45.700;4.880;2022-12-18T11:17:25;31.00;;;19.90;;
17091;SDS011;8661;45.700;4.880;2022-12-18T11:19:56;31.80;;;20.33;;
17091;SDS011;8661;45.700;4.880;2022-12-18T11:22:24;32.73;;;20.77;;
17091;SDS011;8661;45.700;4.880;2022-12-18T11:24:55;32.17;;;20.03;;
17091;SDS011;8661;45.700;4.880;2022-12-18T11:27:24;33.80;;;21.83;;
17091;SDS011;8661;45.700;4.880;2022-12-18T11:29:52;34.30;;;21.07;;
17091;SDS011;8661;45.700;4.880;2022-12-18T11:32:30;31.23;;;20.07;;
17091;SDS011;8661;45.700;4.880;2022-12-18T11:35:03;32.43;;;20.30;;
17091;SDS011;8661;45.700;4.880;2022-12-18T11:37:40;31.27;;;19.73;;
17091;SDS011;8661;45.700;4.880;2022-12-18T11:40:13;29.83;;;19.77;;
17091;SDS011;8661;45.700;4.880;2022-12-18T11:42:45;31.63;;;20.23;;
17091;SDS011;8661;45.700;4.880;2022-12-18T11:45:26;30.90;;;19.87;;
17091;SDS011;8661;45.700;4.880;2022-12-18T11:48:00;33.77;;;20.97;;
17091;SDS011;8661;45.700;4.880;2022-12-18T11:50:32;29.10;;;19.57;;
17091;SDS011;8661;45.700;4.880;2022-12-18T11:53:16;27.57;;;17.77;;
17091;SDS011;8661;45.700;4.880;2022-12-18T11:55:49;31.52;;;21.20;;
17091;SDS011;8661;45.700;4.880;2022-12-18T12:01:13;30.43;;;19.73;;
17091;SDS011;8661;45.700;4.880;2022-12-18T12:03:51;30.57;;;18.93;;
17091;SDS011;8661;45.700;4.880;2022-12-18T12:06:36;28.83;;;19.53;;
17091;SDS011;8661;45.700;4.880;2022-12-18T12:09:14;27.03;;;18.10;;
17091;SDS011;8661;45.700;4.880;2022-12-18T12:11:52;26.53;;;18.37;;
17091;SDS011;8661;45.700;4.880;2022-12-18T12:14:45;26.17;;;17.40;;
17091;SDS011;8661;45.700;4.880;2022-12-18T12:17:23;26.90;;;18.13;;
17091;SDS011;8661;45.700;4.880;2022-12-18T12:20:00;26.63;;;17.20;;
17091;SDS011;8661;45.700;4.880;2022-12-18T12:22:36;29.27;;;17.93;;
17091;SDS011;8661;45.700;4.880;2022-12-18T12:25:16;27.30;;;18.83;;
17091;SDS011;8661;45.700;4.880;2022-12-18T12:27:53;22.23;;;16.30;;
17091;SDS011;8661;45.700;4.880;2022-12-18T12:30:30;24.13;;;16.97;;
17091;SDS011;8661;45.700;4.880;2022-12-18T12:33:08;25.43;;;16.77;;
17091;SDS011;8661;45.700;4.880;2022-12-18T12:35:51;22.13;;;15.23;;
17091;SDS011;8661;45.700;4.880;2022-12-18T12:38:24;23.03;;;15.67;;
17091;SDS011;8661;45.700;4.880;2022-12-18T12:40:56;26.03;;;16.13;;
17091;SDS011;8661;45.700;4.880;2022-12-18T12:43:28;24.13;;;16.40;;
17091;SDS011;8661;45.700;4.880;2022-12-18T12:46:00;25.50;;;16.53;;
17091;SDS011;8661;45.700;4.880;2022-12-18T12:48:33;39.80;;;25.80;;
17091;SDS011;8661;45.700;4.880;2022-12-18T12:51:06;21.60;;;14.30;;
17091;SDS011;8661;45.700;4.880;2022-12-18T12:53:37;20.90;;;13.37;;
17091;SDS011;8661;45.700;4.880;2022-12-18T12:56:06;19.20;;;13.87;;
17091;SDS011;8661;45.700;4.880;2022-12-18T12:58:38;19.40;;;13.97;;
17091;SDS011;8661;45.700;4.880;2022-12-18T13:01:14;22.10;;;13.87;;
17091;SDS011;8661;45.700;4.880;2022-12-18T13:03:52;19.13;;;13.30;;
17091;SDS011;8661;45.700;4.880;2022-12-18T13:06:36;16.40;;;11.77;;
17091;SDS011;8661;45.700;4.880;2022-12-18T13:09:08;18.90;;;12.63;;
17091;SDS011;8661;45.700;4.880;2022-12-18T13:11:36;19.70;;;13.68;;
17091;SDS011;8661;45.700;4.880;2022-12-18T13:14:25;23.07;;;14.80;;
17091;SDS011;8661;45.700;4.880;2022-12-18T13:20:07;16.47;;;11.10;;
17091;SDS011;8661;45.700;4.880;2022-12-18T13:22:36;15.70;;;10.93;;
17091;SDS011;8661;45.700;4.880;2022-12-18T13:28:00;18.10;;;11.30;;
17091;SDS011;8661;45.700;4.880;2022-12-18T13:30:45;18.60;;;11.90;;
17091;SDS011;8661;45.700;4.880;2022-12-18T13:36:15;17.80;;;11.97;;
17091;SDS011;8661;45.700;4.880;2022-12-18T13:45:43;24.23;;;14.30;;
17091;SDS011;8661;45.700;4.880;2022-12-18T13:48:14;26.63;;;14.00;;
17091;SDS011;8661;45.700;4.880;2022-12-18T13:50:44;21.23;;;14.00;;
17091;SDS011;8661;45.700;4.880;2022-12-18T13:53:20;21.07;;;15.20;;
17091;SDS011;8661;45.700;4.880;2022-12-18T13:55:49;21.83;;;14.57;;
17091;SDS011;8661;45.700;4.880;2022-12-18T13:58:17;22.23;;;14.20;;
17091;SDS011;8661;45.700;4.880;2022-12-18T14:00:44;27.87;;;15.50;;
17091;SDS011;8661;45.700;4.880;2022-12-18T14:03:19;28.50;;;14.93;;
17091;SDS011;8661;45.700;4.880;2022-12-18T14:05:52;24.60;;;14.50;;
17091;SDS011;8661;45.700;4.880;2022-12-18T14:08:21;25.23;;;14.50;;
17091;SDS011;8661;45.700;4.880;2022-12-18T14:10:56;14.23;;;9.03;;
17091;SDS011;8661;45.700;4.880;2022-12-18T14:13:24;8.47;;;4.20;;
17091;SDS011;8661;45.700;4.880;2022-12-18T14:15:55;6.37;;;3.60;;
17091;SDS011;8661;45.700;4.880;2022-12-18T14:18:26;5.87;;;3.00;;
17091;SDS011;8661;45.700;4.880;2022-12-18T14:21:00;7.03;;;2.93;;
17091;SDS011;8661;45.700;4.880;2022-12-18T14:23:30;3.03;;;2.20;;
17091;SDS011;8661;45.700;4.880;2022-12-18T14:26:00;6.83;;;2.50;;
17091;SDS011;8661;45.700;4.880;2022-12-18T14:28:30;3.07;;;2.40;;
17091;SDS011;8661;45.700;4.880;2022-12-18T14:30:56;8.77;;;2.33;;
17091;SDS011;8661;45.700;4.880;2022-12-18T14:33:24;5.17;;;2.50;;
17091;SDS011;8661;45.700;4.880;2022-12-18T14:35:54;5.03;;;2.53;;
17091;SDS011;8661;45.700;4.880;2022-12-18T14:38:25;6.30;;;2.53;;
17091;SDS011;8661;45.700;4.880;2022-12-18T14:40:54;6.83;;;2.63;;
17091;SDS011;8661;45.700;4.880;2022-12-18T14:43:23;6.47;;;2.50;;
17091;SDS011;8661;45.700;4.880;2022-12-18T14:45:50;4.17;;;2.30;;
17091;SDS011;8661;45.700;4.880;2022-12-18T14:48:19;4.83;;;2.03;;
17091;SDS011;8661;45.700;4.880;2022-12-18T14:50:55;2.77;;;2.00;;
17091;SDS011;8661;45.700;4.880;2022-12-18T14:53:28;7.20;;;2.20;;
17091;SDS011;8661;45.700;4.880;2022-12-18T14:56:02;3.60;;;2.17;;
17091;SDS011;8661;45.700;4.880;2022-12-18T14:58:30;3.67;;;2.40;;
17091;SDS011;8661;45.700;4.880;2022-12-18T15:00:57;6.07;;;2.30;;
17091;SDS011;8661;45.700;4.880;2022-12-18T15:03:24;4.23;;;1.70;;
17091;SDS011;8661;45.700;4.880;2022-12-18T15:05:53;4.10;;;2.17;;
17091;SDS011;8661;45.700;4.880;2022-12-18T15:08:29;2.37;;;1.77;;
17091;SDS011;8661;45.700;4.880;2022-12-18T15:11:00;3.07;;;1.93;;
17091;SDS011;8661;45.700;4.880;2022-12-18T15:13:27;5.40;;;2.00;;
17091;SDS011;8661;45.700;4.880;2022-12-18T15:15:54;4.43;;;1.93;;